Terminal Aerodrome Forecast
Issued by NWS Miami, FL

Home | Current Version | Previous Version | Text Only | Print | Product List | Glossary On
Versions: 1 2 3 4 5 6 7 8 9 10 11 12 13 14 15 16 17 18 19 20 21 22 23 24 25 26
000
FTUS42 KMFL 251820 AAA
TAFFLL
TAF AMD
KFLL 251820Z 2518/2618 04010G19KT P6SM SCT045
     FM252100 01008KT P6SM SKC
     FM260400 35005KT P6SM FEW250
     FM261400 03009KT P6SM FEW250=

USA.gov is the U.S. government's official web portal to all federal, state and local government web resources and services.